^^
Meteo Knjazevac Station Historical Data
Daily Summary for March 24, 2021 Units:  Both    English   Metric
Daily Weekly Monthly Yearly Custom
  High: Low: Average:
Temperature: 72.2 °F /  22.3 °C 65.3 °F /  18.5 °C 68.4 °F /  20.2 °C
Dew Point: 67.9 °F /  19.9 °C 63.8 °F /  17.7 °C 65.8 °F /  18.8 °C
Humidity: 95% 86% 92%
Wind Speed: 3mph /  4.8km/h - 1.4mph /  2.3km/h
Wind Gust: 8mph /  12.9km/h - -
Wind- - West
Pressure: 30.13 in /  1020.2 hPa 30.12 in /  1019.9 hPa -
Precipitation: 0.00 in /  0 mm    
Historical Graphs
 
 
Tabular Data for March 24, 2021
Time Temperature Dew Point Pressure Wind Wind Speed Wind Gust Humidity Rainfall Rate (Hourly) solar Conditions
00:00 72.2 °F /  22.3 °C 67.8 °F /  19.9 °C 30.12in /  1019.9hPa WNW 2mph /  3.2km/h 3mph /  4.8km/h 86% 0.00in /  0mm 0 W/m2
00:10 72 °F /  22.2 °C 67.5 °F /  19.7 °C 30.12in /  1019.9hPa NW 2mph /  3.2km/h 3mph /  4.8km/h 86% 0.00in /  0mm 0 W/m2
00:20 71.6 °F /  22 °C 67.9 °F /  19.9 °C 30.12in /  1019.9hPa WSW 1mph /  1.6km/h 4mph /  6.4km/h 88% 0.00in /  0mm 0 W/m2
00:30 71.5 °F /  21.9 °C 67.7 °F /  19.8 °C 30.12in /  1019.9hPa Calm   3mph /  4.8km/h 88% 0.00in /  0mm 0 W/m2
00:40 71.3 °F /  21.8 °C 67.6 °F /  19.8 °C 30.12in /  1019.9hPa Calm   1mph /  1.6km/h 88% 0.00in /  0mm 0 W/m2
00:50 70.7 °F /  21.5 °C 67 °F /  19.4 °C 30.12in /  1019.9hPa WNW 1mph /  1.6km/h 3mph /  4.8km/h 88% 0.00in /  0mm 0 W/m2
01:00 70.2 °F /  21.2 °C 66.8 °F /  19.3 °C 30.12in /  1019.9hPa WNW 2mph /  3.2km/h 3mph /  4.8km/h 89% 0.00in /  0mm 0 W/m2
01:10 69.7 °F /  20.9 °C 66.3 °F /  19.1 °C 30.12in /  1019.9hPa SW 2mph /  3.2km/h 3mph /  4.8km/h 89% 0.00in /  0mm 0 W/m2
01:20 69 °F /  20.6 °C 65.9 °F /  18.8 °C 30.12in /  1019.9hPa West 3mph /  4.8km/h 8mph /  12.9km/h 90% 0.00in /  0mm 0 W/m2
01:30 68.9 °F /  20.5 °C 66.2 °F /  19 °C 30.13in /  1020.2hPa West 3mph /  4.8km/h 6mph /  9.7km/h 91% 0.00in /  0mm 0 W/m2
01:40 68.7 °F /  20.4 °C 66 °F /  18.9 °C 30.13in /  1020.2hPa Calm   4mph /  6.4km/h 91% 0.00in /  0mm 0 W/m2
01:50 68.5 °F /  20.3 °C 65.8 °F /  18.8 °C 30.13in /  1020.2hPa WNW 2mph /  3.2km/h 3mph /  4.8km/h 91% 0.00in /  0mm 0 W/m2
02:00 68.5 °F /  20.3 °C 65.8 °F /  18.8 °C 30.13in /  1020.2hPa Calm   2mph /  3.2km/h 91% 0.00in /  0mm 0 W/m2
02:10 68.4 °F /  20.2 °C 65.6 °F /  18.7 °C 30.13in /  1020.2hPa Calm   2mph /  3.2km/h 91% 0.00in /  0mm 0 W/m2
02:20 68.2 °F /  20.1 °C 66.1 °F /  18.9 °C 30.13in /  1020.2hPa North 1mph /  1.6km/h 2mph /  3.2km/h 93% 0.00in /  0mm 0 W/m2
02:30 68 °F /  20 °C 65.3 °F /  18.5 °C 30.13in /  1020.2hPa WNW 1mph /  1.6km/h 2mph /  3.2km/h 91% 0.00in /  0mm 0 W/m2
02:40 67.8 °F /  19.9 °C 65.7 °F /  18.7 °C 30.13in /  1020.2hPa NNW 2mph /  3.2km/h 3mph /  4.8km/h 93% 0.00in /  0mm 0 W/m2
02:50 67.8 °F /  19.9 °C 65.7 °F /  18.7 °C 30.13in /  1020.2hPa Calm   2mph /  3.2km/h 93% 0.00in /  0mm 0 W/m2
03:00 67.3 °F /  19.6 °C 65.2 °F /  18.4 °C 30.12in /  1019.9hPa WNW 1mph /  1.6km/h 4mph /  6.4km/h 93% 0.00in /  0mm 0 W/m2
03:10 66.8 °F /  19.3 °C 64.7 °F /  18.2 °C 30.12in /  1019.9hPa West 3mph /  4.8km/h 5mph /  8km/h 93% 0.00in /  0mm 0 W/m2
03:20 66.4 °F /  19.1 °C 64.6 °F /  18.1 °C 30.13in /  1020.2hPa WSW 2mph /  3.2km/h 5mph /  8km/h 94% 0.00in /  0mm 0 W/m2
03:30 66.2 °F /  19 °C 64.4 °F /  18 °C 30.12in /  1019.9hPa WSW 2mph /  3.2km/h 3mph /  4.8km/h 94% 0.00in /  0mm 0 W/m2
03:40 65.8 °F /  18.8 °C 64.4 °F /  18 °C 30.12in /  1019.9hPa Calm   4mph /  6.4km/h 95% 0.00in /  0mm 0 W/m2
03:50 66 °F /  18.9 °C 64.5 °F /  18.1 °C 30.13in /  1020.2hPa WNW 1mph /  1.6km/h 2mph /  3.2km/h 95% 0.00in /  0mm 0 W/m2
04:00 66 °F /  18.9 °C 64.5 °F /  18.1 °C 30.12in /  1019.9hPa North 1mph /  1.6km/h 3mph /  4.8km/h 95% 0.00in /  0mm 0 W/m2
04:10 66 °F /  18.9 °C 64.5 °F /  18.1 °C 30.12in /  1019.9hPa SE 2mph /  3.2km/h 3mph /  4.8km/h 95% 0.00in /  0mm 0 W/m2
04:20 65.7 °F /  18.7 °C 64.2 °F /  17.9 °C 30.12in /  1019.9hPa West 3mph /  4.8km/h 6mph /  9.7km/h 95% 0.00in /  0mm 0 W/m2
04:30 65.3 °F /  18.5 °C 63.8 °F /  17.7 °C 30.13in /  1020.2hPa West 3mph /  4.8km/h 6mph /  9.7km/h 95% 0.00in /  0mm 0 W/m2
Knjazevac, Serbia
Compliments of Weather Underground - 2 mb